sensor_id;sensor_type;location;lat;lon;timestamp;pressure;altitude;pressure_sealevel;temperature;humidity
70103;BME280;57470;50.034;15.256;2022-10-19T00:03:26;100377.44;;;13.04;100.00
70103;BME280;57470;50.034;15.256;2022-10-19T00:05:51;100389.06;;;13.03;100.00
70103;BME280;57470;50.034;15.256;2022-10-19T00:08:17;100387.53;;;13.13;100.00
70103;BME280;57470;50.034;15.256;2022-10-19T00:10:42;100394.78;;;13.11;100.00
70103;BME280;57470;50.034;15.256;2022-10-19T00:13:07;100398.50;;;13.08;100.00
70103;BME280;57470;50.034;15.256;2022-10-19T00:15:37;100394.78;;;13.11;100.00
70103;BME280;57470;50.034;15.256;2022-10-19T00:18:02;100394.59;;;13.00;100.00
70103;BME280;57470;50.034;15.256;2022-10-19T00:20:28;100394.16;;;12.93;100.00
70103;BME280;57470;50.034;15.256;2022-10-19T00:22:53;100390.25;;;12.85;100.00
70103;BME280;57470;50.034;15.256;2022-10-19T00:25:18;100394.81;;;12.97;100.00
70103;BME280;57470;50.034;15.256;2022-10-19T00:27:44;100396.91;;;13.06;100.00
70103;BME280;57470;50.034;15.256;2022-10-19T00:30:09;100395.81;;;13.08;100.00
70103;BME280;57470;50.034;15.256;2022-10-19T00:32:34;100407.28;;;13.10;100.00
70103;BME280;57470;50.034;15.256;2022-10-19T00:35:00;100400.53;;;13.19;100.00
70103;BME280;57470;50.034;15.256;2022-10-19T00:37:28;100395.09;;;13.21;100.00
70103;BME280;57470;50.034;15.256;2022-10-19T00:39:54;100397.31;;;13.14;100.00
70103;BME280;57470;50.034;15.256;2022-10-19T00:42:19;100388.69;;;13.23;100.00
70103;BME280;57470;50.034;15.256;2022-10-19T00:47:13;100392.50;;;13.19;100.00
70103;BME280;57470;50.034;15.256;2022-10-19T00:49:41;100391.16;;;13.12;100.00
70103;BME280;57470;50.034;15.256;2022-10-19T00:52:11;100387.72;;;13.10;100.00
70103;BME280;57470;50.034;15.256;2022-10-19T00:54:39;100377.53;;;13.02;100.00
70103;BME280;57470;50.034;15.256;2022-10-19T00:57:06;100373.28;;;12.86;100.00
70103;BME280;57470;50.034;15.256;2022-10-19T00:59:32;100376.44;;;12.78;100.00
70103;BME280;57470;50.034;15.256;2022-10-19T01:02:00;100373.84;;;12.76;100.00
70103;BME280;57470;50.034;15.256;2022-10-19T01:04:27;100376.72;;;12.59;100.00
70103;BME280;57470;50.034;15.256;2022-10-19T01:06:53;100370.31;;;12.62;99.86
70103;BME280;57470;50.034;15.256;2022-10-19T01:09:19;100370.81;;;12.54;99.41
70103;BME280;57470;50.034;15.256;2022-10-19T01:17:16;100360.41;;;12.35;100.00
70103;BME280;57470;50.034;15.256;2022-10-19T01:26:05;100346.69;;;12.13;99.39
70103;BME280;57470;50.034;15.256;2022-10-19T01:31:00;100344.50;;;12.06;98.30
70103;BME280;57470;50.034;15.256;2022-10-19T01:42:15;100347.78;;;11.81;98.22
70103;BME280;57470;50.034;15.256;2022-10-19T01:45:13;100350.84;;;11.73;98.90
70103;BME280;57470;50.034;15.256;2022-10-19T01:47:54;100339.78;;;11.35;100.00
70103;BME280;57470;50.034;15.256;2022-10-19T01:50:35;100340.00;;;11.62;99.94
70103;BME280;57470;50.034;15.256;2022-10-19T01:53:04;100341.19;;;11.56;99.67
70103;BME280;57470;50.034;15.256;2022-10-19T01:55:33;100339.47;;;11.55;99.27
70103;BME280;57470;50.034;15.256;2022-10-19T01:58:06;100341.88;;;11.60;98.60
70103;BME280;57470;50.034;15.256;2022-10-19T02:00:35;100344.78;;;11.55;98.45
70103;BME280;57470;50.034;15.256;2022-10-19T02:03:04;100343.78;;;11.58;98.30
70103;BME280;57470;50.034;15.256;2022-10-19T02:05:32;100354.44;;;11.58;99.58
70103;BME280;57470;50.034;15.256;2022-10-19T02:08:01;100351.19;;;11.53;100.00
70103;BME280;57470;50.034;15.256;2022-10-19T02:10:28;100342.53;;;11.63;100.00
70103;BME280;57470;50.034;15.256;2022-10-19T02:12:55;100341.34;;;11.69;100.00
70103;BME280;57470;50.034;15.256;2022-10-19T02:15:24;100344.44;;;11.77;100.00
70103;BME280;57470;50.034;15.256;2022-10-19T02:17:53;100342.38;;;11.66;100.00
70103;BME280;57470;50.034;15.256;2022-10-19T02:20:21;100345.31;;;11.62;100.00
70103;BME280;57470;50.034;15.256;2022-10-19T02:22:47;100337.38;;;11.76;100.00
70103;BME280;57470;50.034;15.256;2022-10-19T02:25:13;100337.31;;;11.78;100.00
70103;BME280;57470;50.034;15.256;2022-10-19T02:27:40;100337.69;;;11.86;100.00
70103;BME280;57470;50.034;15.256;2022-10-19T02:30:10;100335.97;;;11.85;100.00
70103;BME280;57470;50.034;15.256;2022-10-19T02:32:36;100334.75;;;11.90;100.00
70103;BME280;57470;50.034;15.256;2022-10-19T02:35:02;100333.41;;;11.83;100.00
70103;BME280;57470;50.034;15.256;2022-10-19T02:37:27;100332.16;;;11.59;100.00
70103;BME280;57470;50.034;15.256;2022-10-19T02:39:53;100332.81;;;11.78;100.00
70103;BME280;57470;50.034;15.256;2022-10-19T02:42:27;100324.19;;;11.89;100.00
70103;BME280;57470;50.034;15.256;2022-10-19T02:45:01;100326.31;;;11.98;100.00
70103;BME280;57470;50.034;15.256;2022-10-19T02:47:35;100322.47;;;12.02;100.00
70103;BME280;57470;50.034;15.256;2022-10-19T02:50:07;100312.28;;;12.09;100.00
70103;BME280;57470;50.034;15.256;2022-10-19T02:52:32;100318.41;;;12.11;100.00
70103;BME280;57470;50.034;15.256;2022-10-19T02:54:58;100311.00;;;12.16;100.00
70103;BME280;57470;50.034;15.256;2022-10-19T02:57:24;100313.34;;;12.20;100.00
70103;BME280;57470;50.034;15.256;2022-10-19T02:59:50;100312.78;;;12.15;100.00
70103;BME280;57470;50.034;15.256;2022-10-19T03:02:19;100314.97;;;12.23;100.00
70103;BME280;57470;50.034;15.256;2022-10-19T03:04:44;100322.22;;;12.21;100.00
70103;BME280;57470;50.034;15.256;2022-10-19T03:07:13;100316.50;;;12.27;100.00
70103;BME280;57470;50.034;15.256;2022-10-19T03:09:42;100314.78;;;12.26;100.00
70103;BME280;57470;50.034;15.256;2022-10-19T03:12:07;100319.16;;;12.27;100.00
70103;BME280;57470;50.034;15.256;2022-10-19T03:14:32;100316.94;;;11.91;100.00
70103;BME280;57470;50.034;15.256;2022-10-19T03:16:58;100304.41;;;12.07;100.00
70103;BME280;57470;50.034;15.256;2022-10-19T03:19:23;100308.97;;;12.19;100.00
70103;BME280;57470;50.034;15.256;2022-10-19T03:21:49;100312.09;;;12.26;100.00
70103;BME280;57470;50.034;15.256;2022-10-19T03:24:14;100305.53;;;12.17;100.00
70103;BME280;57470;50.034;15.256;2022-10-19T03:26:40;100307.91;;;11.93;100.00
70103;BME280;57470;50.034;15.256;2022-10-19T03:29:05;100306.78;;;12.12;100.00
70103;BME280;57470;50.034;15.256;2022-10-19T03:31:31;100311.00;;;12.16;100.00
70103;BME280;57470;50.034;15.256;2022-10-19T03:33:56;100311.63;;;12.05;100.00
70103;BME280;57470;50.034;15.256;2022-10-19T03:38:56;100310.41;;;12.11;100.00
70103;BME280;57470;50.034;15.256;2022-10-19T03:41:23;100305.94;;;11.97;100.00
70103;BME280;57470;50.034;15.256;2022-10-19T03:43:49;100313.44;;;12.05;100.00
70103;BME280;57470;50.034;15.256;2022-10-19T03:46:15;100312.72;;;12.17;100.00
70103;BME280;57470;50.034;15.256;2022-10-19T03:48:41;100309.31;;;11.99;100.00
70103;BME280;57470;50.034;15.256;2022-10-19T03:51:10;100318.47;;;12.09;100.00
70103;BME280;57470;50.034;15.256;2022-10-19T03:53:37;100320.22;;;12.10;100.00
70103;BME280;57470;50.034;15.256;2022-10-19T03:56:19;100320.78;;;12.15;100.00
70103;BME280;57470;50.034;15.256;2022-10-19T03:58:46;100317.84;;;12.20;100.00
70103;BME280;57470;50.034;15.256;2022-10-19T04:01:17;100317.75;;;12.21;100.00
70103;BME280;57470;50.034;15.256;2022-10-19T04:03:43;100318.41;;;12.25;100.00
70103;BME280;57470;50.034;15.256;2022-10-19T04:06:15;100314.50;;;12.30;100.00
70103;BME280;57470;50.034;15.256;2022-10-19T04:08:42;100319.53;;;12.35;100.00
70103;BME280;57470;50.034;15.256;2022-10-19T04:11:11;100323.84;;;12.37;100.00
70103;BME280;57470;50.034;15.256;2022-10-19T04:13:37;100324.88;;;12.35;100.00
70103;BME280;57470;50.034;15.256;2022-10-19T04:16:03;100325.28;;;12.43;100.00
70103;BME280;57470;50.034;15.256;2022-10-19T04:18:29;100325.94;;;12.47;100.00
70103;BME280;57470;50.034;15.256;2022-10-19T04:20:59;100320.31;;;12.51;100.00
70103;BME280;57470;50.034;15.256;2022-10-19T04:23:27;100327.09;;;12.43;100.00
70103;BME280;57470;50.034;15.256;2022-10-19T04:26:05;100318.78;;;12.47;100.00
70103;BME280;57470;50.034;15.256;2022-10-19T04:28:31;100319.47;;;12.51;100.00
70103;BME280;57470;50.034;15.256;2022-10-19T04:30:56;100324.59;;;12.54;100.00
70103;BME280;57470;50.034;15.256;2022-10-19T04:33:25;100327.56;;;12.49;100.00
70103;BME280;57470;50.034;15.256;2022-10-19T04:35:56;100324.41;;;12.57;100.00
70103;BME280;57470;50.034;15.256;2022-10-19T04:38:22;100323.44;;;12.58;100.00
70103;BME280;57470;50.034;15.256;2022-10-19T04:40:47;100321.53;;;12.60;100.00
70103;BME280;57470;50.034;15.256;2022-10-19T04:43:13;100321.63;;;12.58;100.00
70103;BME280;57470;50.034;15.256;2022-10-19T04:45:38;100325.06;;;12.60;100.00
70103;BME280;57470;50.034;15.256;2022-10-19T04:48:04;100325.09;;;12.32;100.00
70103;BME280;57470;50.034;15.256;2022-10-19T04:50:29;100326.50;;;12.37;100.00
70103;BME280;57470;50.034;15.256;2022-10-19T04:52:55;100329.94;;;12.25;100.00
70103;BME280;57470;50.034;15.256;2022-10-19T04:55:20;100332.03;;;12.20;100.00
70103;BME280;57470;50.034;15.256;2022-10-19T04:57:45;100328.97;;;12.26;100.00
70103;BME280;57470;50.034;15.256;2022-10-19T05:00:11;100332.22;;;12.31;100.00
70103;BME280;57470;50.034;15.256;2022-10-19T05:02:41;100327.16;;;12.27;100.00
70103;BME280;57470;50.034;15.256;2022-10-19T05:05:07;100334.72;;;12.34;100.00
70103;BME280;57470;50.034;15.256;2022-10-19T05:07:32;100329.75;;;12.28;100.00
70103;BME280;57470;50.034;15.256;2022-10-19T05:09:58;100340.22;;;12.31;100.00
70103;BME280;57470;50.034;15.256;2022-10-19T05:12:23;100333.56;;;12.24;100.00
70103;BME280;57470;50.034;15.256;2022-10-19T05:14:48;100335.84;;;12.30;100.00
70103;BME280;57470;50.034;15.256;2022-10-19T05:17:14;100332.50;;;12.13;100.00
70103;BME280;57470;50.034;15.256;2022-10-19T05:19:39;100339.81;;;12.09;100.00
70103;BME280;57470;50.034;15.256;2022-10-19T05:22:04;100341.38;;;12.13;100.00
70103;BME280;57470;50.034;15.256;2022-10-19T05:24:30;100334.13;;;12.15;100.00
70103;BME280;57470;50.034;15.256;2022-10-19T05:26:56;100339.25;;;12.18;100.00
70103;BME280;57470;50.034;15.256;2022-10-19T05:29:22;100343.16;;;12.27;100.00
70103;BME280;57470;50.034;15.256;2022-10-19T05:31:48;100343.72;;;12.18;100.00
70103;BME280;57470;50.034;15.256;2022-10-19T05:34:14;100343.28;;;12.25;100.00
70103;BME280;57470;50.034;15.256;2022-10-19T05:36:39;100347.28;;;12.32;100.00
70103;BME280;57470;50.034;15.256;2022-10-19T05:39:05;100346.78;;;12.26;100.00
70103;BME280;57470;50.034;15.256;2022-10-19T05:41:31;100352.88;;;12.28;100.00
70103;BME280;57470;50.034;15.256;2022-10-19T05:43:58;100347.38;;;12.31;100.00
70103;BME280;57470;50.034;15.256;2022-10-19T05:46:25;100361.09;;;12.39;100.00
70103;BME280;57470;50.034;15.256;2022-10-19T05:48:51;100357.53;;;12.10;100.00
70103;BME280;57470;50.034;15.256;2022-10-19T05:51:18;100360.03;;;12.27;100.00
70103;BME280;57470;50.034;15.256;2022-10-19T05:53:44;100358.91;;;12.31;100.00
70103;BME280;57470;50.034;15.256;2022-10-19T05:56:19;100364.88;;;12.21;100.00
70103;BME280;57470;50.034;15.256;2022-10-19T05:58:45;100356.72;;;12.24;100.00
70103;BME280;57470;50.034;15.256;2022-10-19T06:01:11;100369.97;;;12.39;100.00
70103;BME280;57470;50.034;15.256;2022-10-19T06:03:38;100373.66;;;12.23;100.00
70103;BME280;57470;50.034;15.256;2022-10-19T06:06:05;100364.81;;;12.36;100.00
70103;BME280;57470;50.034;15.256;2022-10-19T06:08:31;100367.56;;;12.35;100.00
70103;BME280;57470;50.034;15.256;2022-10-19T06:13:29;100371.97;;;12.50;100.00
70103;BME280;57470;50.034;15.256;2022-10-19T06:15:55;100378.81;;;12.40;100.00
70103;BME280;57470;50.034;15.256;2022-10-19T06:18:20;100384.53;;;12.48;100.00
70103;BME280;57470;50.034;15.256;2022-10-19T06:20:50;100394.66;;;12.57;100.00
70103;BME280;57470;50.034;15.256;2022-10-19T06:23:16;100384.66;;;12.61;100.00
70103;BME280;57470;50.034;15.256;2022-10-19T06:25:41;100386.53;;;12.59;100.00
70103;BME280;57470;50.034;15.256;2022-10-19T06:28:07;100390.84;;;12.61;100.00
70103;BME280;57470;50.034;15.256;2022-10-19T06:30:32;100397.78;;;12.64;100.00
70103;BME280;57470;50.034;15.256;2022-10-19T06:32:58;100401.03;;;12.55;100.00
70103;BME280;57470;50.034;15.256;2022-10-19T06:35:23;100404.75;;;12.66;100.00
70103;BME280;57470;50.034;15.256;2022-10-19T06:37:49;100409.13;;;12.67;100.00
70103;BME280;57470;50.034;15.256;2022-10-19T06:40:14;100408.06;;;12.56;100.00
70103;BME280;57470;50.034;15.256;2022-10-19T06:42:40;100404.56;;;12.55;100.00
70103;BME280;57470;50.034;15.256;2022-10-19T06:45:09;100405.50;;;12.54;100.00
70103;BME280;57470;50.034;15.256;2022-10-19T06:47:35;100406.84;;;12.61;100.00
70103;BME280;57470;50.034;15.256;2022-10-19T06:50:02;100408.56;;;12.76;100.00
70103;BME280;57470;50.034;15.256;2022-10-19T06:52:28;100418.56;;;12.59;100.00
70103;BME280;57470;50.034;15.256;2022-10-19T06:54:53;100423.06;;;12.58;100.00
70103;BME280;57470;50.034;15.256;2022-10-19T06:57:19;100420.84;;;12.65;100.00
70103;BME280;57470;50.034;15.256;2022-10-19T06:59:44;100428.28;;;12.74;100.00
70103;BME280;57470;50.034;15.256;2022-10-19T07:02:13;100432.97;;;12.42;100.00
70103;BME280;57470;50.034;15.256;2022-10-19T07:04:38;100428.75;;;12.81;100.00
70103;BME280;57470;50.034;15.256;2022-10-19T07:07:04;100430.09;;;12.59;100.00
70103;BME280;57470;50.034;15.256;2022-10-19T07:09:29;100428.78;;;12.66;100.00
70103;BME280;57470;50.034;15.256;2022-10-19T07:11:54;100430.88;;;12.75;100.00
70103;BME280;57470;50.034;15.256;2022-10-19T07:14:20;100432.66;;;12.89;100.00
70103;BME280;57470;50.034;15.256;2022-10-19T07:16:48;100435.91;;;12.80;99.71
70103;BME280;57470;50.034;15.256;2022-10-19T07:19:14;100446.00;;;12.47;100.00
70103;BME280;57470;50.034;15.256;2022-10-19T07:21:39;100450.22;;;12.65;100.00
70103;BME280;57470;50.034;15.256;2022-10-19T07:24:06;100449.94;;;12.69;99.95
70103;BME280;57470;50.034;15.256;2022-10-19T07:26:32;100453.72;;;12.79;99.78
70103;BME280;57470;50.034;15.256;2022-10-19T07:28:58;100456.16;;;12.70;99.19
70103;BME280;57470;50.034;15.256;2022-10-19T07:31:26;100453.94;;;12.76;99.44
70103;BME280;57470;50.034;15.256;2022-10-19T07:34:02;100455.16;;;12.71;99.22
70103;BME280;57470;50.034;15.256;2022-10-19T07:36:30;100459.78;;;12.97;98.98
70103;BME280;57470;50.034;15.256;2022-10-19T07:38:57;100468.94;;;12.79;97.89
70103;BME280;57470;50.034;15.256;2022-10-19T07:41:24;100469.00;;;12.92;97.76
70103;BME280;57470;50.034;15.256;2022-10-19T07:43:50;100468.44;;;13.01;97.73
70103;BME280;57470;50.034;15.256;2022-10-19T07:46:19;100464.63;;;13.19;97.41
70103;BME280;57470;50.034;15.256;2022-10-19T07:48:45;100455.63;;;13.34;96.30
70103;BME280;57470;50.034;15.256;2022-10-19T07:51:12;100471.06;;;13.43;96.82
70103;BME280;57470;50.034;15.256;2022-10-19T07:53:38;100463.38;;;13.39;96.15
70103;BME280;57470;50.034;15.256;2022-10-19T07:56:18;100472.25;;;13.25;96.51
70103;BME280;57470;50.034;15.256;2022-10-19T07:58:44;100460.69;;;13.10;96.12
70103;BME280;57470;50.034;15.256;2022-10-19T08:01:15;100465.50;;;13.20;95.20
70103;BME280;57470;50.034;15.256;2022-10-19T08:03:41;100468.91;;;13.07;95.30
70103;BME280;57470;50.034;15.256;2022-10-19T08:06:09;100461.97;;;13.05;95.72
70103;BME280;57470;50.034;15.256;2022-10-19T08:08:35;100466.91;;;13.25;95.85
70103;BME280;57470;50.034;15.256;2022-10-19T08:13:40;100479.22;;;13.42;96.48
70103;BME280;57470;50.034;15.256;2022-10-19T08:16:29;100476.22;;;13.46;95.11
70103;BME280;57470;50.034;15.256;2022-10-19T08:18:59;100483.56;;;13.57;93.92
70103;BME280;57470;50.034;15.256;2022-10-19T08:21:25;100478.16;;;13.16;93.50
70103;BME280;57470;50.034;15.256;2022-10-19T08:23:51;100481.81;;;13.29;93.20
70103;BME280;57470;50.034;15.256;2022-10-19T08:26:18;100475.09;;;13.08;92.55
70103;BME280;57470;50.034;15.256;2022-10-19T08:28:43;100477.41;;;13.00;92.02
70103;BME280;57470;50.034;15.256;2022-10-19T08:31:14;100473.97;;;13.40;92.24
70103;BME280;57470;50.034;15.256;2022-10-19T08:33:40;100470.53;;;13.38;93.20
70103;BME280;57470;50.034;15.256;2022-10-19T08:36:07;100480.00;;;13.30;95.02
70103;BME280;57470;50.034;15.256;2022-10-19T08:38:34;100468.94;;;13.22;91.15
70103;BME280;57470;50.034;15.256;2022-10-19T08:50:44;100474.28;;;13.63;89.74
70103;BME280;57470;50.034;15.256;2022-10-19T08:53:13;100473.75;;;13.97;89.41
70103;BME280;57470;50.034;15.256;2022-10-19T08:56:03;100472.66;;;13.87;88.14
70103;BME280;57470;50.034;15.256;2022-10-19T09:01:56;100466.44;;;14.53;86.83
70103;BME280;57470;50.034;15.256;2022-10-19T09:09:44;100469.94;;;13.74;87.32
70103;BME280;57470;50.034;15.256;2022-10-19T09:12:17;100469.97;;;13.87;88.54
70103;BME280;57470;50.034;15.256;2022-10-19T09:14:54;100467.69;;;14.08;87.65
70103;BME280;57470;50.034;15.256;2022-10-19T09:17:21;100464.28;;;14.06;87.14
70103;BME280;57470;50.034;15.256;2022-10-19T09:19:49;100459.91;;;13.78;87.14
70103;BME280;57470;50.034;15.256;2022-10-19T09:22:31;100457.56;;;13.32;86.44
70103;BME280;57470;50.034;15.256;2022-10-19T09:27:40;100465.69;;;13.31;84.88
70103;BME280;57470;50.034;15.256;2022-10-19T09:30:21;100463.63;;;13.48;83.00
70103;BME280;57470;50.034;15.256;2022-10-19T09:32:57;100470.25;;;13.70;82.46
70103;BME280;57470;50.034;15.256;2022-10-19T09:37:50;100467.88;;;13.92;77.82
70103;BME280;57470;50.034;15.256;2022-10-19T09:40:27;100456.41;;;13.63;75.48
70103;BME280;57470;50.034;15.256;2022-10-19T09:42:54;100464.28;;;13.52;74.12
70103;BME280;57470;50.034;15.256;2022-10-19T09:45:39;100464.50;;;13.06;75.05
70103;BME280;57470;50.034;15.256;2022-10-19T09:48:19;100463.03;;;12.88;74.29
70103;BME280;57470;50.034;15.256;2022-10-19T09:50:52;100471.47;;;12.66;75.19
70103;BME280;57470;50.034;15.256;2022-10-19T09:53:20;100472.25;;;13.25;76.02
70103;BME280;57470;50.034;15.256;2022-10-19T09:56:19;100465.81;;;13.83;76.76
70103;BME280;57470;50.034;15.256;2022-10-19T09:58:53;100471.09;;;13.97;73.81
70103;BME280;57470;50.034;15.256;2022-10-19T10:01:39;100468.50;;;13.83;75.57
70103;BME280;57470;50.034;15.256;2022-10-19T10:04:12;100470.47;;;13.67;74.83
70103;BME280;57470;50.034;15.256;2022-10-19T10:06:39;100473.06;;;13.54;74.40
70103;BME280;57470;50.034;15.256;2022-10-19T10:09:05;100466.22;;;13.50;74.61
70103;BME280;57470;50.034;15.256;2022-10-19T10:11:33;100472.66;;;13.87;75.03
70103;BME280;57470;50.034;15.256;2022-10-19T10:14:09;100474.50;;;13.45;75.59
70103;BME280;57470;50.034;15.256;2022-10-19T10:16:39;100468.38;;;13.58;76.03
70103;BME280;57470;50.034;15.256;2022-10-19T10:19:07;100471.94;;;13.44;75.05
70103;BME280;57470;50.034;15.256;2022-10-19T10:21:53;100472.19;;;13.53;76.30
70103;BME280;57470;50.034;15.256;2022-10-19T10:24:22;100471.75;;;13.47;77.02
70103;BME280;57470;50.034;15.256;2022-10-19T10:26:53;100480.16;;;13.12;77.66
70103;BME280;57470;50.034;15.256;2022-10-19T10:31:57;100480.66;;;13.19;75.34
70103;BME280;57470;50.034;15.256;2022-10-19T10:36:57;100478.00;;;13.19;73.78
70103;BME280;57470;50.034;15.256;2022-10-19T10:39:24;100483.53;;;13.30;74.11
70103;BME280;57470;50.034;15.256;2022-10-19T10:41:52;100483.78;;;13.26;73.51
70103;BME280;57470;50.034;15.256;2022-10-19T10:44:23;100473.19;;;13.38;73.37
70103;BME280;57470;50.034;15.256;2022-10-19T10:47:02;100472.00;;;13.57;72.95
70103;BME280;57470;50.034;15.256;2022-10-19T10:49:35;100472.63;;;13.74;71.16
70103;BME280;57470;50.034;15.256;2022-10-19T10:52:15;100482.09;;;14.32;71.35
70103;BME280;57470;50.034;15.256;2022-10-19T10:57:37;100490.66;;;13.71;66.68
70103;BME280;57470;50.034;15.256;2022-10-19T11:00:08;100486.53;;;13.52;66.90
70103;BME280;57470;50.034;15.256;2022-10-19T11:02:59;100472.56;;;13.62;67.02
70103;BME280;57470;50.034;15.256;2022-10-19T11:05:34;100475.59;;;13.70;68.42
70103;BME280;57470;50.034;15.256;2022-10-19T11:10:59;100468.56;;;13.55;67.92
70103;BME280;57470;50.034;15.256;2022-10-19T11:13:32;100474.34;;;13.75;68.94
70103;BME280;57470;50.034;15.256;2022-10-19T11:18:34;100472.31;;;13.79;68.23
70103;BME280;57470;50.034;15.256;2022-10-19T11:31:58;100462.78;;;14.54;69.53
70103;BME280;57470;50.034;15.256;2022-10-19T11:42:39;100451.59;;;14.22;68.73
70103;BME280;57470;50.034;15.256;2022-10-19T11:51:08;100462.59;;;14.17;70.04
70103;BME280;57470;50.034;15.256;2022-10-19T11:56:48;100438.22;;;13.82;69.64
70103;BME280;57470;50.034;15.256;2022-10-19T11:59:38;100448.41;;;13.63;69.96
70103;BME280;57470;50.034;15.256;2022-10-19T12:05:02;100447.06;;;14.10;70.98
70103;BME280;57470;50.034;15.256;2022-10-19T12:07:43;100447.97;;;13.96;69.99
70103;BME280;57470;50.034;15.256;2022-10-19T12:12:57;100439.75;;;13.60;70.70
70103;BME280;57470;50.034;15.256;2022-10-19T12:15:31;100442.34;;;14.01;71.96
70103;BME280;57470;50.034;15.256;2022-10-19T12:20:53;100440.38;;;14.30;70.25
70103;BME280;57470;50.034;15.256;2022-10-19T12:23:23;100429.69;;;14.42;69.82
70103;BME280;57470;50.034;15.256;2022-10-19T12:25:50;100430.25;;;14.47;69.24
70103;BME280;57470;50.034;15.256;2022-10-19T12:28:23;100432.41;;;14.15;67.93
70103;BME280;57470;50.034;15.256;2022-10-19T12:30:51;100423.00;;;14.35;67.77
70103;BME280;57470;50.034;15.256;2022-10-19T12:39:06;100421.66;;;14.68;69.22
70103;BME280;57470;50.034;15.256;2022-10-19T12:41:55;100416.53;;;14.64;68.81
70103;BME280;57470;50.034;15.256;2022-10-19T12:46:59;100417.22;;;15.05;68.56
70103;BME280;57470;50.034;15.256;2022-10-19T12:51:58;100406.75;;;15.01;68.50
70103;BME280;57470;50.034;15.256;2022-10-19T12:54:29;100411.69;;;14.70;67.08
70103;BME280;57470;50.034;15.256;2022-10-19T12:56:57;100412.00;;;14.90;67.48
70103;BME280;57470;50.034;15.256;2022-10-19T12:59:34;100412.56;;;14.70;67.24
70103;BME280;57470;50.034;15.256;2022-10-19T13:02:04;100406.84;;;14.87;67.61
70103;BME280;57470;50.034;15.256;2022-10-19T13:04:32;100415.47;;;14.67;67.44
70103;BME280;57470;50.034;15.256;2022-10-19T13:07:06;100416.53;;;14.39;67.94
70103;BME280;57470;50.034;15.256;2022-10-19T13:09:39;100411.81;;;14.43;68.25
70103;BME280;57470;50.034;15.256;2022-10-19T13:14:46;100431.72;;;13.99;70.89
70103;BME280;57470;50.034;15.256;2022-10-19T13:22:40;100422.16;;;14.22;69.88
70103;BME280;57470;50.034;15.256;2022-10-19T13:27:40;100415.13;;;14.59;69.56
70103;BME280;57470;50.034;15.256;2022-10-19T13:49:47;100413.59;;;14.30;71.63
70103;BME280;57470;50.034;15.256;2022-10-19T14:06:32;100406.03;;;13.97;70.85
70103;BME280;57470;50.034;15.256;2022-10-19T14:11:52;100398.81;;;13.72;71.23
70103;BME280;57470;50.034;15.256;2022-10-19T14:14:20;100399.47;;;13.75;71.09
70103;BME280;57470;50.034;15.256;2022-10-19T14:16:51;100402.09;;;13.63;71.87
70103;BME280;57470;50.034;15.256;2022-10-19T14:21:57;100403.63;;;13.67;71.33
70103;BME280;57470;50.034;15.256;2022-10-19T14:24:31;100399.56;;;13.74;70.50
70103;BME280;57470;50.034;15.256;2022-10-19T14:27:02;100406.81;;;13.59;70.48
70103;BME280;57470;50.034;15.256;2022-10-19T14:29:32;100407.53;;;13.61;70.04
70103;BME280;57470;50.034;15.256;2022-10-19T14:31:59;100404.88;;;13.34;68.65
70103;BME280;57470;50.034;15.256;2022-10-19T14:34:25;100405.22;;;13.42;69.61
70103;BME280;57470;50.034;15.256;2022-10-19T14:36:50;100401.09;;;13.51;69.27
70103;BME280;57470;50.034;15.256;2022-10-19T14:42:35;100403.09;;;13.21;70.80
70103;BME280;57470;50.034;15.256;2022-10-19T14:45:02;100403.97;;;13.21;70.94
70103;BME280;57470;50.034;15.256;2022-10-19T14:47:27;100402.44;;;13.44;70.93
70103;BME280;57470;50.034;15.256;2022-10-19T14:49:55;100409.09;;;13.51;70.23
70103;BME280;57470;50.034;15.256;2022-10-19T14:52:29;100400.78;;;13.29;70.58
70103;BME280;57470;50.034;15.256;2022-10-19T14:54:59;100397.50;;;12.97;70.69
70103;BME280;57470;50.034;15.256;2022-10-19T14:57:31;100408.63;;;12.89;70.54
70103;BME280;57470;50.034;15.256;2022-10-19T15:00:04;100404.50;;;13.12;71.32
70103;BME280;57470;50.034;15.256;2022-10-19T15:02:36;100399.59;;;12.92;70.83
70103;BME280;57470;50.034;15.256;2022-10-19T15:05:04;100405.31;;;13.14;71.68
70103;BME280;57470;50.034;15.256;2022-10-19T15:07:37;100405.47;;;13.11;70.93
70103;BME280;57470;50.034;15.256;2022-10-19T15:12:43;100409.97;;;12.82;70.06
70103;BME280;57470;50.034;15.256;2022-10-19T15:15:32;100406.66;;;12.78;70.32
70103;BME280;57470;50.034;15.256;2022-10-19T15:20:35;100401.03;;;12.69;71.27
70103;BME280;57470;50.034;15.256;2022-10-19T15:23:23;100403.28;;;12.89;71.99
70103;BME280;57470;50.034;15.256;2022-10-19T15:25:58;100399.31;;;12.68;70.63
70103;BME280;57470;50.034;15.256;2022-10-19T15:28:37;100398.66;;;12.50;71.39
70103;BME280;57470;50.034;15.256;2022-10-19T15:31:15;100407.72;;;12.76;71.06
70103;BME280;57470;50.034;15.256;2022-10-19T15:34:01;100408.28;;;12.67;71.74
70103;BME280;57470;50.034;15.256;2022-10-19T15:36:28;100405.69;;;12.65;71.33
70103;BME280;57470;50.034;15.256;2022-10-19T15:41:31;100401.63;;;12.60;72.13
70103;BME280;57470;50.034;15.256;2022-10-19T15:43:59;100402.44;;;12.46;72.39
70103;BME280;57470;50.034;15.256;2022-10-19T15:46:30;100402.28;;;12.49;72.67